Stations météo

réclame
Mon MeteoGroup
Elgoibar, Espagne (8036): Température de l'air & dewpoint: 16.01.2018 11:00:00 - 22.01.2018 11:00:00 (CET)Elgoibar, Espagne (8036): Vitesse du vent & gusts: 16.01.2018 11:00:00 - 22.01.2018 11:00:00 (CET)Elgoibar, Espagne (8036): Direction du vent: 16.01.2018 11:00:00 - 22.01.2018 11:00:00 (CET)Elgoibar, Espagne (8036): Quantités de précipitations: 16.01.2018 11:00:00 - 22.01.2018 11:00:00 (CET)
Date & Time tt [°C] td [°C] ff [km/h] ff [knt] fx [km/h] fx [knt] dd rr [mm]
22.01.2018 11:00:00 - - - - - - - -
22.01.2018 10:00:00 9,5 8,7 5 3 16 9 SW 0,0
22.01.2018 09:00:00 9,2 8,4 5 3 12 7 SSW 0,0
22.01.2018 08:00:00 9,3 8,7 3 2 10 6 SSW 0,0
22.01.2018 07:00:00 9,4 8,8 0 0 13 7 S -
22.01.2018 06:00:00 9,3 8,5 0 0 13 7 N 0,0
22.01.2018 05:00:00 9,5 8,6 5 3 21 12 SSW 0,0
22.01.2018 04:00:00 10,0 9,1 0 0 5 3 N 0,0
22.01.2018 03:00:00 10,7 9,6 3 1 9 5 SSW 0,0
22.01.2018 02:00:00 11,1 9,9 5 3 9 5 SW 0,0
22.01.2018 01:00:00 11,4 10,0 4 2 9 5 SSW -
22.01.2018 00:00:00 11,4 9,8 5 3 11 6 SSW 0,0
21.01.2018 23:00:00 11,4 9,8 5 3 10 6 SW 0,0
21.01.2018 22:00:00 11,7 10,0 3 2 12 6 SSW 0,0
21.01.2018 21:00:00 11,6 9,7 7 4 12 7 SW 0,0
21.01.2018 20:00:00 11,9 9,5 5 3 8 4 SW 0,0
21.01.2018 19:00:00 12,5 9,2 0 0 10 5 S -
21.01.2018 18:00:00 13,6 9,5 3 2 15 8 W 0,0
21.01.2018 17:00:00 13,7 9,6 4 2 23 12 W 0,0
21.01.2018 16:00:00 14,2 10,2 6 3 16 8 W 0,0
21.01.2018 15:00:00 14,0 10,2 5 3 10 5 SW 0,0
21.01.2018 14:00:00 13,9 9,9 6 3 19 10 NW 0,0
21.01.2018 13:00:00 13,6 10,2 4 2 19 11 E -
21.01.2018 12:00:00 12,9 10,1 3 2 14 8 ENE 0,0
21.01.2018 11:00:00 13,0 10,2 5 3 42 23 WSW 0,0
21.01.2018 10:00:00 12,5 10,2 6 4 26 14 W 0,0
21.01.2018 09:00:00 12,1 10,3 14 7 39 21 W 0,3
21.01.2018 08:00:00 11,7 10,3 3 2 24 13 WSW 1,2
21.01.2018 07:00:00 11,8 10,4 1 0 41 22 WSW -
21.01.2018 06:00:00 11,8 10,2 3 1 18 10 W 1,3
21.01.2018 05:00:00 12,2 10,4 6 3 27 14 WSW 1,2
21.01.2018 04:00:00 12,2 10,1 6 4 35 19 WSW 0,4
21.01.2018 03:00:00 12,4 10,1 8 4 36 19 W 0,4
21.01.2018 02:00:00 12,4 10,0 9 5 33 18 WSW 0,2
21.01.2018 01:00:00 - - - - - - - -
21.01.2018 00:00:00 12,2 9,9 5 3 22 12 WSW 0,0
20.01.2018 23:00:00 12,3 9,9 8 5 29 15 WSW 0,1
20.01.2018 22:00:00 12,3 10,5 7 4 28 15 W 0,1
20.01.2018 21:00:00 11,6 10,7 5 3 25 13 WSW 0,3
20.01.2018 20:00:00 10,9 10,0 0 0 14 8 WSW 0,4
20.01.2018 19:00:00 11,0 9,6 8 4 17 9 WSW -
20.01.2018 18:00:00 11,8 9,7 9 5 24 13 SW 0,0
20.01.2018 17:00:00 11,2 9,5 11 6 29 16 SW 0,0
20.01.2018 16:00:00 11,2 9,8 10 6 28 15 SW 0,5
20.01.2018 15:00:00 9,9 8,5 11 6 26 14 SW 1,0
20.01.2018 14:00:00 9,9 7,2 14 8 32 17 SW 0,1
20.01.2018 13:00:00 11,0 5,3 9 5 27 15 SW -
20.01.2018 12:00:00 9,9 5,5 9 5 22 12 SW 0,0
20.01.2018 11:00:00 9,1 6,4 6 3 19 11 SW 0,0
20.01.2018 10:00:00 7,7 6,6 5 3 17 9 SSW 0,0
20.01.2018 09:00:00 7,1 6,4 5 3 13 7 S 0,0
20.01.2018 08:00:00 7,3 6,6 3 1 13 7 SSW 0,0
20.01.2018 07:00:00 7,7 7,3 0 0 16 9 SW -
20.01.2018 06:00:00 7,3 6,9 3 1 12 6 SSW 0,0
20.01.2018 05:00:00 7,2 6,8 3 2 11 6 SW 0,0
20.01.2018 04:00:00 7,3 6,9 4 2 - - SW -
20.01.2018 03:00:00 7,4 7,0 0 0 7 4 N 0,0
20.01.2018 02:00:00 7,6 7,2 0 0 7 4 N 0,0
20.01.2018 01:00:00 - - - - - - - -
20.01.2018 00:00:00 8,3 7,5 0 0 8 4 ESE 0,0
19.01.2018 23:00:00 8,4 7,6 0 0 4 2 N 0,2
19.01.2018 22:00:00 8,5 7,6 3 1 7 4 E 1,3
19.01.2018 21:00:00 8,7 7,5 0 0 9 5 N 0,5
19.01.2018 20:00:00 9,2 7,6 1 0 19 10 SSE 2,2
19.01.2018 19:00:00 9,1 7,6 5 3 17 9 WSW -
19.01.2018 18:00:00 9,1 7,6 2 1 22 12 WSW 0,4
19.01.2018 17:00:00 9,2 7,6 2 1 13 7 SW 0,5
19.01.2018 16:00:00 9,4 7,8 4 2 15 8 SSW 0,6
19.01.2018 15:00:00 9,4 7,7 1 1 19 10 WSW 0,2
19.01.2018 14:00:00 10,0 7,8 7 4 18 10 WSW 0,2
19.01.2018 13:00:00 9,7 9,1 0 0 8 5 SW -
19.01.2018 12:00:00 9,6 9,0 5 3 9 5 ENE 1,0
19.01.2018 11:00:00 9,7 9,1 4 2 12 7 ESE 1,1
19.01.2018 10:00:00 9,1 8,5 0 0 6 3 N 1,4
19.01.2018 09:00:00 8,9 8,1 0 0 6 3 N 0,0
19.01.2018 08:00:00 8,9 8,3 0 0 8 4 N 0,1
19.01.2018 07:00:00 9,0 8,4 1 1 16 9 WNW -
19.01.2018 06:00:00 8,7 7,9 0 0 13 7 SW 0,0
19.01.2018 05:00:00 8,7 7,9 3 2 13 7 SW 0,1
19.01.2018 04:00:00 8,6 7,7 6 4 16 9 SW 0,0
19.01.2018 03:00:00 8,5 7,4 10 6 20 11 SW 0,0
19.01.2018 02:00:00 8,9 7,4 9 5 16 9 SW 0,0
19.01.2018 01:00:00 8,9 7,2 2 1 13 7 NE -
19.01.2018 00:00:00 8,7 7,2 7 4 18 10 SSW 0,0
18.01.2018 23:00:00 8,6 7,1 8 4 14 8 SW 0,0
18.01.2018 22:00:00 8,6 7,2 0 0 10 5 N 0,0
18.01.2018 21:00:00 8,2 6,8 1 1 14 7 WSW 0,0
18.01.2018 20:00:00 7,9 6,4 2 1 7 4 NW 0,0
18.01.2018 19:00:00 7,8 5,6 0 0 0 0 N -
18.01.2018 18:00:00 8,8 5,6 0 0 0 0 N 0,0
18.01.2018 17:00:00 10,2 6,0 0 0 0 0 N 0,0
18.01.2018 16:00:00 11,1 6,1 0 0 0 0 N 0,0
18.01.2018 15:00:00 11,7 6,2 0 0 0 0 N 0,0
18.01.2018 14:00:00 10,6 6,7 0 0 0 0 N 0,0
18.01.2018 13:00:00 8,2 7,3 0 0 0 0 N -
18.01.2018 12:00:00 5,7 5,4 0 0 6 3 N 0,0
18.01.2018 11:00:00 4,0 3,7 0 0 5 3 N 0,0
18.01.2018 10:00:00 3,7 3,3 0 0 6 3 SSE 0,0
18.01.2018 09:00:00 3,7 3,3 2 1 16 9 SSE 0,1
18.01.2018 08:00:00 3,8 3,4 5 3 12 6 SW 0,0
18.01.2018 07:00:00 4,2 3,8 0 0 10 6 N -
18.01.2018 06:00:00 4,5 4,1 2 1 7 4 SSW 0,0
18.01.2018 05:00:00 4,9 4,5 0 0 0 0 N 0,0
18.01.2018 04:00:00 5,0 4,4 1 0 8 4 NE 0,0
18.01.2018 03:00:00 5,2 4,6 0 0 0 0 N 0,0
18.01.2018 02:00:00 4,9 4,2 0 0 0 0 N 0,0
18.01.2018 01:00:00 5,5 4,6 0 0 8 5 N -
18.01.2018 00:00:00 6,1 5,2 1 1 12 7 SSW 0,0
17.01.2018 23:00:00 7,3 6,4 6 3 13 7 SW 0,0
17.01.2018 22:00:00 7,6 6,7 1 0 9 5 SSE 0,0
17.01.2018 21:00:00 7,9 6,8 2 1 10 6 SSW 0,0
17.01.2018 20:00:00 8,1 6,9 0 0 11 6 S 0,1
17.01.2018 19:00:00 8,3 6,9 0 0 8 4 N -
17.01.2018 18:00:00 8,6 6,7 4 2 9 5 E 0,3
17.01.2018 17:00:00 9,6 6,1 2 1 9 5 SW 0,0
17.01.2018 16:00:00 10,1 5,9 3 1 16 9 WSW 0,1
17.01.2018 15:00:00 10,0 6,4 7 4 22 12 W 0,1
17.01.2018 14:00:00 9,5 6,6 5 3 26 14 W 0,6
17.01.2018 13:00:00 10,2 7,4 1 1 17 9 E -
17.01.2018 12:00:00 9,6 6,7 8 4 16 9 SW 0,1
17.01.2018 11:00:00 9,0 6,1 4 2 16 9 WNW 0,4
17.01.2018 10:00:00 8,8 6,6 4 2 16 9 SSW 0,4
17.01.2018 09:00:00 9,1 6,0 5 3 31 17 WSW 1,1
17.01.2018 08:00:00 9,5 6,6 4 2 17 9 WSW 0,1
17.01.2018 07:00:00 9,4 6,8 6 3 31 17 W -
17.01.2018 06:00:00 9,9 6,6 6 3 38 20 S 0,6
17.01.2018 05:00:00 10,5 7,4 9 5 40 21 W 0,5
17.01.2018 04:00:00 10,7 7,9 7 4 45 25 W 1,5
17.01.2018 03:00:00 11,6 7,9 14 8 40 22 NW 0,7
17.01.2018 02:00:00 11,8 8,8 3 1 42 23 N 0,8
17.01.2018 01:00:00 11,7 10,6 4 2 21 11 N -
17.01.2018 00:00:00 10,3 8,9 1 1 12 6 S 0,8
16.01.2018 23:00:00 10,8 8,4 1 1 9 5 NNW 0,0
16.01.2018 22:00:00 11,6 8,3 3 1 10 6 W 0,0
16.01.2018 21:00:00 11,5 8,4 2 1 13 7 SSW 0,0
16.01.2018 20:00:00 11,6 8,5 3 2 11 6 SSW 0,0
16.01.2018 19:00:00 12,0 7,9 1 1 13 7 ESE -
16.01.2018 18:00:00 12,4 7,7 1 1 9 5 SSW 0,0
16.01.2018 17:00:00 13,1 7,6 4 2 12 7 SW 0,0
16.01.2018 16:00:00 13,3 7,3 4 2 12 7 SSW 0,0
16.01.2018 15:00:00 14,2 7,7 5 3 16 8 SW 0,0
16.01.2018 14:00:00 13,1 7,8 5 3 13 7 SW 0,0
16.01.2018 13:00:00 11,1 8,0 2 1 7 4 NE -
16.01.2018 12:00:00 10,2 7,6 0 0 4 2 N 0,0
16.01.2018 11:00:00 9,7 6,4 3 2 6 3 NNE 0,0

tt = Température de l'air
td = dewpoint
ff = Vitesse du vent
fx = gusts
dd = Direction du vent
rr = Quantités de précipitations

stations d'obs. à proximité